createdAt,value
2018-07-01T00:01:42.405Z,42.20
2018-07-01T00:26:36.310Z,42.00
2018-07-01T00:35:12.433Z,41.70
2018-07-01T00:37:42.229Z,41.90
2018-07-01T00:40:11.790Z,42.40
2018-07-01T00:42:41.379Z,42.70
2018-07-01T00:45:11.000Z,42.90
2018-07-01T00:47:40.631Z,43.00
2018-07-01T00:50:10.569Z,43.20
2018-07-01T00:52:40.019Z,43.40
2018-07-01T00:55:10.302Z,43.40
2018-07-01T00:57:39.655Z,43.50
2018-07-01T01:00:09.719Z,43.50
2018-07-01T01:02:39.175Z,43.80
2018-07-01T01:05:09.301Z,43.80
2018-07-01T01:21:28.907Z,43.40
2018-07-01T01:24:04.148Z,43.70
2018-07-01T01:26:33.929Z,43.90
2018-07-01T01:29:03.416Z,44.00
2018-07-01T01:31:32.826Z,44.30
2018-07-01T01:34:04.440Z,44.60
2018-07-01T01:36:35.782Z,44.60
2018-07-01T01:39:09.182Z,44.90
2018-07-01T01:41:43.924Z,44.90
2018-07-01T01:44:22.962Z,44.70
2018-07-01T01:47:12.061Z,44.90
2018-07-01T01:50:02.480Z,44.90
2018-07-01T01:52:47.425Z,44.90
2018-07-01T02:29:50.938Z,46.00
2018-07-01T02:32:20.553Z,46.00
2018-07-01T02:34:50.331Z,46.10
2018-07-01T02:37:20.069Z,46.50
2018-07-01T02:39:50.688Z,46.50
2018-07-01T02:42:20.310Z,46.60
2018-07-01T02:44:49.829Z,46.90
2018-07-01T02:47:19.279Z,46.90
2018-07-01T02:49:48.765Z,47.10
2018-07-01T02:52:23.192Z,47.10
2018-07-01T02:54:53.935Z,47.20
2018-07-01T03:19:29.190Z,47.40
2018-07-01T03:24:27.573Z,47.40
2018-07-01T03:26:59.654Z,47.80
2018-07-01T03:29:33.378Z,48.10
2018-07-01T03:32:06.446Z,48.30
2018-07-01T03:34:39.390Z,48.30
2018-07-01T03:52:41.913Z,48.80
2018-07-01T03:55:11.474Z,49.00
2018-07-01T03:57:40.984Z,49.30
2018-07-01T04:00:23.670Z,49.30
2018-07-01T04:02:53.106Z,49.30
2018-07-01T04:05:22.597Z,49.20
2018-07-01T04:07:51.953Z,49.30
2018-07-01T04:10:21.373Z,49.30
2018-07-01T04:12:50.762Z,50.00
2018-07-01T04:15:20.120Z,49.50
2018-07-01T04:17:49.990Z,49.50
2018-07-01T04:20:19.698Z,49.70
2018-07-01T04:22:49.107Z,49.80
2018-07-01T04:49:07.724Z,49.30
2018-07-01T04:51:37.608Z,49.30
2018-07-01T04:54:07.117Z,49.00
2018-07-01T04:56:36.547Z,48.90
2018-07-01T05:35:45.264Z,47.90
2018-07-01T05:38:15.060Z,47.40
2018-07-01T05:40:44.861Z,47.40
2018-07-01T05:43:15.666Z,47.10
2018-07-01T05:45:45.213Z,46.80
2018-07-01T05:48:15.229Z,46.60
2018-07-01T05:50:50.421Z,46.60
2018-07-01T05:53:20.182Z,46.50
2018-07-01T05:56:00.129Z,46.30
2018-07-01T05:58:35.852Z,46.10
2018-07-01T06:01:05.538Z,46.00
2018-07-01T06:03:35.109Z,46.10
2018-07-01T06:06:06.778Z,46.00
2018-07-01T06:08:36.337Z,45.90
2018-07-01T06:11:06.137Z,45.60
2018-07-01T06:13:35.801Z,45.50
2018-07-01T06:19:07.731Z,45.30
2018-07-01T06:21:37.422Z,45.50
2018-07-01T06:24:07.218Z,45.00
2018-07-01T06:26:36.794Z,44.90
2018-07-01T06:29:10.124Z,44.80
2018-07-01T06:31:39.673Z,44.80
2018-07-01T06:34:09.648Z,44.20
2018-07-01T06:36:59.760Z,43.50
2018-07-01T06:42:54.380Z,42.40
2018-07-01T06:45:35.323Z,42.10
2018-07-01T06:48:05.368Z,41.20
2018-07-01T06:50:34.951Z,41.40
2018-07-01T06:53:04.709Z,40.80
2018-07-01T06:55:34.159Z,40.20
2018-07-01T06:58:05.695Z,40.20
2018-07-01T07:01:18.719Z,39.80
2018-07-01T07:03:55.343Z,40.40
2018-07-01T07:06:25.105Z,39.20
2018-07-01T07:08:55.033Z,39.20
2018-07-01T07:11:26.127Z,39.00
2018-07-01T07:13:56.446Z,38.80
2018-07-01T07:16:26.878Z,38.50
2018-07-01T07:18:56.931Z,38.40
2018-07-01T07:21:27.548Z,38.40
2018-07-01T07:23:57.299Z,38.10
2018-07-01T07:26:27.193Z,37.80
2018-07-01T07:28:57.018Z,37.50
2018-07-01T07:31:26.810Z,37.70
2018-07-01T07:34:01.180Z,37.40
2018-07-01T07:36:32.005Z,37.30
2018-07-01T07:39:01.965Z,37.20
2018-07-01T07:41:32.038Z,37.20
2018-07-01T07:44:01.933Z,37.40
2018-07-01T07:46:31.685Z,37.40
2018-07-01T07:49:02.249Z,37.50
2018-07-01T07:51:32.499Z,37.70
2018-07-01T07:54:02.559Z,37.90
2018-07-01T07:56:32.279Z,38.40
2018-07-01T07:59:02.525Z,38.00
2018-07-01T08:01:32.144Z,37.90
2018-07-01T08:04:01.673Z,37.80
2018-07-01T08:06:33.238Z,37.80
2018-07-01T08:09:07.750Z,37.90
2018-07-01T08:11:37.921Z,37.70
2018-07-01T08:14:07.853Z,37.80
2018-07-01T08:16:38.487Z,37.90
2018-07-01T08:19:08.266Z,37.90
2018-07-01T08:21:40.101Z,37.90
2018-07-01T08:24:09.705Z,37.80
2018-07-01T08:26:39.648Z,38.00
2018-07-01T08:29:09.191Z,38.10
2018-07-01T08:34:38.752Z,37.70
2018-07-01T08:37:08.619Z,37.60
2018-07-01T08:39:38.467Z,37.60
2018-07-01T08:51:09.002Z,37.20
2018-07-01T08:53:39.013Z,37.20
2018-07-01T09:05:13.568Z,37.00
2018-07-01T09:07:43.209Z,36.90
2018-07-01T09:10:13.126Z,36.80
2018-07-01T09:12:42.829Z,36.70
2018-07-01T09:15:12.499Z,36.70
2018-07-01T09:17:42.055Z,36.70
2018-07-01T09:22:41.264Z,36.30
2018-07-01T09:25:11.419Z,36.30
2018-07-01T09:27:52.055Z,36.30
2018-07-01T09:33:13.630Z,36.20
2018-07-01T09:38:44.673Z,36.30
2018-07-01T09:41:14.775Z,36.20
2018-07-01T09:43:44.498Z,36.30
2018-07-01T09:49:14.535Z,36.10
2018-07-01T09:51:44.326Z,36.30
2018-07-01T09:54:14.839Z,36.30
2018-07-01T09:56:45.621Z,36.30
2018-07-01T09:59:15.011Z,36.40
2018-07-01T10:01:44.464Z,36.50
2018-07-01T10:04:14.256Z,36.30
2018-07-01T10:06:44.170Z,36.10
2018-07-01T10:09:14.068Z,35.80
2018-07-01T10:11:43.920Z,36.40
2018-07-01T10:14:15.555Z,35.60
2018-07-01T10:16:45.011Z,35.40
2018-07-01T10:19:14.705Z,35.30
2018-07-01T10:21:45.373Z,35.10
2018-07-01T10:24:15.200Z,35.00
2018-07-01T10:26:44.803Z,35.00
2018-07-01T10:29:15.278Z,35.10
2018-07-01T10:31:45.380Z,35.20
2018-07-01T10:34:15.999Z,35.20
2018-07-01T10:36:45.464Z,35.30
2018-07-01T10:39:16.643Z,35.50
2018-07-01T10:42:01.985Z,35.50
2018-07-01T10:44:31.396Z,35.60
2018-07-01T10:47:00.805Z,35.50
2018-07-01T10:49:30.420Z,35.60
2018-07-01T10:52:00.149Z,35.30
2018-07-01T10:54:30.808Z,35.10
2018-07-01T10:57:16.730Z,34.90
2018-07-01T10:59:47.050Z,35.20
2018-07-01T11:04:53.768Z,35.10
2018-07-01T11:07:24.509Z,34.90
2018-07-01T11:09:57.184Z,34.70
2018-07-01T11:12:34.278Z,34.60
2018-07-01T11:15:05.387Z,34.30
2018-07-01T11:17:36.180Z,34.30
2018-07-01T11:20:06.131Z,34.10
2018-07-01T11:22:38.439Z,34.00
2018-07-01T11:25:08.550Z,33.80
2018-07-01T11:27:39.101Z,33.60
2018-07-01T11:30:08.780Z,33.10
2018-07-01T11:32:40.687Z,32.80
2018-07-01T11:35:12.735Z,32.50
2018-07-01T11:37:58.094Z,32.30
2018-07-01T11:40:43.485Z,32.20
2018-07-01T11:43:17.771Z,32.50
2018-07-01T11:45:47.825Z,32.70
2018-07-01T11:50:46.262Z,33.70
2018-07-01T11:53:18.870Z,33.90
2018-07-01T11:55:49.089Z,33.50
2018-07-01T11:58:28.656Z,32.50
2018-07-01T12:00:58.802Z,31.40
2018-07-01T12:06:16.013Z,29.60
2018-07-01T12:08:48.362Z,29.20
2018-07-01T12:11:19.695Z,29.00
2018-07-01T12:16:18.149Z,28.90
2018-07-01T12:21:16.436Z,29.10
2018-07-01T12:23:52.189Z,29.30
2018-07-01T12:26:21.583Z,29.40
2018-07-01T12:28:51.417Z,29.60
2018-07-01T12:31:21.842Z,29.90
2018-07-01T12:33:51.380Z,29.90
2018-07-01T12:36:21.539Z,30.00
2018-07-01T12:38:51.461Z,30.10
2018-07-01T12:41:20.928Z,30.70
2018-07-01T12:43:50.723Z,30.10
2018-07-01T12:46:26.341Z,29.90
2018-07-01T12:48:55.817Z,30.00
2018-07-01T12:51:26.821Z,30.30
2018-07-01T12:53:56.570Z,29.40
2018-07-01T12:56:26.014Z,29.00
2018-07-01T12:58:58.117Z,28.90
2018-07-01T13:01:28.018Z,28.80
2018-07-01T13:03:57.552Z,28.90
2018-07-01T13:06:26.843Z,29.00
2018-07-01T13:08:56.278Z,29.20
2018-07-01T13:11:26.261Z,29.20
2018-07-01T13:13:55.837Z,29.30
2018-07-01T13:16:25.693Z,29.50
2018-07-01T13:18:56.359Z,29.80
2018-07-01T13:21:26.842Z,30.00
2018-07-01T13:29:31.178Z,28.30
2018-07-01T13:32:02.819Z,28.20
2018-07-01T13:34:33.049Z,28.30
2018-07-01T13:37:02.418Z,28.20
2018-07-01T13:39:34.754Z,28.20
2018-07-01T13:42:04.523Z,27.90
2018-07-01T13:44:34.987Z,27.50
2018-07-01T13:47:04.258Z,27.30
2018-07-01T13:49:34.755Z,27.50
2018-07-01T13:52:06.400Z,27.50
2018-07-01T13:54:38.076Z,27.70
2018-07-01T13:57:08.235Z,27.60
2018-07-01T13:59:38.647Z,28.00
2018-07-01T14:14:21.084Z,28.50
2018-07-01T14:16:51.325Z,28.60
2018-07-01T14:19:20.864Z,28.60
2018-07-01T14:21:51.958Z,28.70
2018-07-01T14:24:22.500Z,28.90
2018-07-01T14:26:52.922Z,29.00
2018-07-01T14:29:22.229Z,29.00
2018-07-01T14:31:51.907Z,29.00
2018-07-01T14:34:21.494Z,29.00
2018-07-01T14:36:51.587Z,28.90
2018-07-01T14:39:21.238Z,28.80
2018-07-01T14:41:51.157Z,28.80
2018-07-01T14:44:20.434Z,28.60
2018-07-01T14:46:50.696Z,28.60
2018-07-01T14:49:20.333Z,28.40
2018-07-01T14:51:50.321Z,28.30
2018-07-01T14:54:19.672Z,28.40
2018-07-01T14:56:50.179Z,28.70
2018-07-01T14:59:23.851Z,28.70
2018-07-01T15:01:53.423Z,28.90
2018-07-01T15:04:28.802Z,28.80
2018-07-01T15:07:07.991Z,28.60
2018-07-01T15:09:41.485Z,28.70
2018-07-01T15:12:11.473Z,29.00
2018-07-01T15:14:41.463Z,28.70
2018-07-01T15:17:11.982Z,27.40
2018-07-01T15:19:41.384Z,26.70
2018-07-01T15:22:11.426Z,26.50
2018-07-01T15:24:45.921Z,26.30
2018-07-01T15:27:16.114Z,26.20
2018-07-01T15:29:45.810Z,26.40
2018-07-01T15:32:15.959Z,26.70
2018-07-01T15:34:45.453Z,26.70
2018-07-01T15:37:15.438Z,27.10
2018-07-01T15:39:45.274Z,27.50
2018-07-01T15:42:14.809Z,27.60
2018-07-01T15:44:44.654Z,27.50
2018-07-01T15:47:14.544Z,27.20
2018-07-01T15:49:44.359Z,26.80
2018-07-01T15:52:14.958Z,26.40
2018-07-01T15:57:23.830Z,25.10
2018-07-01T15:59:53.289Z,24.80
2018-07-01T16:02:24.895Z,24.80
2018-07-01T16:04:54.581Z,24.90
2018-07-01T16:07:24.266Z,25.00
2018-07-01T16:09:54.246Z,25.10
2018-07-01T16:12:23.951Z,25.40
2018-07-01T16:14:54.181Z,25.50
2018-07-01T16:17:23.683Z,25.30
2018-07-01T16:19:54.109Z,25.10
2018-07-01T16:22:34.039Z,25.50
2018-07-01T16:25:08.908Z,25.70
2018-07-01T16:27:41.171Z,25.50
2018-07-01T16:30:12.798Z,25.60
2018-07-01T16:32:50.718Z,25.90
2018-07-01T16:35:20.706Z,26.00
2018-07-01T16:37:50.530Z,25.60
2018-07-01T16:40:20.080Z,25.20
2018-07-01T16:42:59.752Z,25.50
2018-07-01T16:45:29.125Z,25.40
2018-07-01T16:47:59.198Z,25.20
2018-07-01T16:50:33.129Z,24.90
2018-07-01T16:53:02.414Z,25.00
2018-07-01T16:55:31.886Z,24.20
2018-07-01T16:58:01.358Z,24.00
2018-07-01T17:00:31.434Z,23.60
2018-07-01T17:03:01.463Z,23.50
2018-07-01T17:05:31.471Z,23.60
2018-07-01T17:08:01.210Z,23.60
2018-07-01T17:10:30.801Z,23.50
2018-07-01T17:13:07.464Z,23.40
2018-07-01T17:15:37.993Z,23.30
2018-07-01T17:18:07.879Z,23.20
2018-07-01T17:20:37.645Z,23.10
2018-07-01T17:23:10.376Z,23.50
2018-07-01T17:25:47.377Z,23.80
2018-07-01T17:28:16.984Z,23.80
2018-07-01T17:30:46.297Z,23.90
2018-07-01T17:39:25.463Z,24.60
2018-07-01T17:41:55.070Z,24.80
2018-07-01T17:44:24.889Z,25.20
2018-07-01T17:47:01.839Z,25.50
2018-07-01T17:49:31.496Z,25.90
2018-07-01T17:52:01.522Z,26.20
2018-07-01T17:54:31.137Z,26.30
2018-07-01T17:57:01.834Z,26.30
2018-07-01T17:59:33.598Z,26.10
2018-07-01T18:02:03.959Z,26.00
2018-07-01T18:04:33.986Z,26.00
2018-07-01T18:07:03.693Z,25.80
2018-07-01T18:09:33.887Z,25.80
2018-07-01T18:12:04.217Z,25.80
2018-07-01T18:14:33.996Z,25.80
2018-07-01T18:17:03.988Z,26.20
2018-07-01T18:19:33.760Z,26.50
2018-07-01T18:22:14.825Z,26.80
2018-07-01T18:27:05.647Z,26.20
2018-07-01T18:29:38.454Z,26.10
2018-07-01T18:32:08.381Z,26.30
2018-07-01T18:34:41.997Z,26.60
2018-07-01T18:37:23.455Z,26.80
2018-07-01T18:39:54.546Z,26.90
2018-07-01T18:42:25.995Z,26.90
2018-07-01T18:44:57.896Z,27.00
2018-07-01T18:47:28.747Z,27.10
2018-07-01T18:49:59.741Z,27.30
2018-07-01T18:52:30.764Z,27.60
2018-07-01T18:55:12.003Z,27.90
2018-07-01T18:57:42.899Z,28.00
2018-07-01T19:00:15.586Z,28.30
2018-07-01T19:02:46.538Z,28.50
2018-07-01T19:05:41.648Z,28.70
2018-07-01T19:08:16.995Z,28.90
2018-07-01T19:10:49.337Z,28.90
2018-07-01T19:13:25.515Z,29.20
2018-07-01T19:15:56.956Z,29.40
2018-07-01T19:20:58.097Z,29.80
2018-07-01T19:23:33.943Z,30.00
2018-07-01T19:26:05.778Z,30.10
2018-07-01T19:28:37.192Z,30.50
2018-07-01T19:31:14.487Z,30.80
2018-07-01T19:36:36.661Z,31.10
2018-07-01T19:39:30.585Z,31.40
2018-07-01T19:42:12.741Z,31.70
2018-07-01T19:44:47.083Z,31.90
2018-07-01T19:47:20.685Z,32.20
2018-07-01T19:50:00.796Z,32.40
2018-07-01T19:52:48.642Z,32.70
2018-07-01T19:55:20.496Z,32.80
2018-07-01T19:57:50.971Z,33.00
2018-07-01T20:00:20.925Z,33.10
2018-07-01T20:03:03.110Z,33.40
2018-07-01T20:08:32.600Z,33.60
2018-07-01T20:11:03.296Z,33.70
2018-07-01T20:13:46.720Z,33.90
2018-07-01T20:16:17.061Z,34.20
2018-07-01T20:18:47.388Z,34.60
2018-07-01T20:21:17.291Z,34.80
2018-07-01T20:23:47.756Z,35.00
2018-07-01T20:26:17.843Z,35.10
2018-07-01T20:28:47.958Z,35.30
2018-07-01T20:31:19.629Z,35.60
2018-07-01T20:33:49.904Z,35.60
2018-07-01T20:36:31.510Z,35.80
2018-07-01T20:39:02.254Z,35.90
2018-07-01T20:41:34.637Z,36.10
2018-07-01T20:44:05.150Z,36.20
2018-07-01T20:46:37.937Z,36.30
2018-07-01T20:49:14.314Z,36.40
2018-07-01T20:51:44.545Z,36.40
2018-07-01T20:54:27.704Z,36.50
2018-07-01T20:57:16.128Z,36.50
2018-07-01T21:02:41.970Z,37.40
2018-07-01T21:05:11.800Z,36.90
2018-07-01T21:07:42.532Z,37.00
2018-07-01T21:10:12.812Z,37.20
2018-07-01T21:12:43.700Z,37.20
2018-07-01T21:15:13.964Z,37.30
2018-07-01T21:17:44.964Z,37.50
2018-07-01T21:22:45.886Z,37.60
2018-07-01T21:25:16.065Z,37.90
2018-07-01T21:27:46.561Z,38.00
2018-07-01T21:30:16.857Z,38.10
2018-07-01T21:32:46.679Z,38.20
2018-07-01T21:35:16.987Z,38.50
2018-07-01T21:40:17.121Z,38.50
2018-07-01T21:42:47.706Z,38.50
2018-07-01T21:45:17.776Z,38.60
2018-07-01T21:47:51.556Z,38.80
2018-07-01T21:50:21.881Z,39.00
2018-07-01T21:53:10.125Z,39.20
2018-07-01T21:55:39.522Z,39.40
2018-07-01T21:58:09.036Z,39.50
2018-07-01T22:00:38.805Z,39.60
2018-07-01T22:03:16.545Z,39.80
2018-07-01T22:05:45.985Z,39.90
2018-07-01T22:08:15.606Z,40.00
2018-07-01T22:15:21.032Z,40.20
2018-07-01T22:17:50.532Z,40.20
2018-07-01T22:20:20.001Z,39.70
2018-07-01T22:22:49.342Z,40.30
2018-07-01T22:25:19.111Z,40.70
2018-07-01T22:27:48.756Z,40.90
2018-07-01T22:30:18.155Z,41.20
2018-07-01T22:44:17.525Z,42.10
2018-07-01T22:46:47.868Z,42.60
2018-07-01T22:49:17.188Z,42.80
2018-07-01T22:51:46.551Z,42.90
2018-07-01T22:54:16.482Z,43.20
2018-07-01T22:56:58.866Z,43.40
2018-07-01T22:59:28.645Z,43.50
2018-07-01T23:03:10.367Z,43.60
2018-07-01T23:05:40.593Z,43.90
2018-07-01T23:08:10.059Z,43.80
2018-07-01T23:10:39.361Z,44.00
2018-07-01T23:13:09.291Z,44.40
2018-07-01T23:15:38.785Z,44.60
2018-07-01T23:18:08.549Z,44.70
2018-07-01T23:20:37.857Z,44.90
2018-07-01T23:23:07.645Z,45.00
2018-07-01T23:25:37.142Z,45.20
2018-07-01T23:28:08.073Z,45.20
2018-07-01T23:30:37.667Z,45.30
2018-07-01T23:33:07.148Z,45.40
2018-07-01T23:35:36.731Z,45.60
2018-07-01T23:38:06.494Z,45.80
2018-07-01T23:40:35.726Z,45.80
2018-07-01T23:43:04.930Z,46.00
2018-07-01T23:45:34.974Z,45.90
2018-07-01T23:48:04.205Z,46.20
2018-07-01T23:50:34.593Z,46.10
2018-07-01T23:53:04.100Z,46.30
2018-07-01T23:55:33.699Z,46.30
2018-07-01T23:58:03.186Z,46.50
